Time;durP1;ratioP1;P1;durP2;ratioP2;P2;SDS_P1;SDS_P2;PMS_P1;PMS_P2;Temp;Humidity;BMP_temperature;BMP_pressure;BME280_temperature;BME280_humidity;BME280_pressure;Samples;Min_cycle;Max_cycle;Signal;HPM_P1;HPM_P2
2023/06/03 00:02:08;;;;;;;5.50;2.90;;;;;;;15.22;100.00;99932.66;105727;1256;59746;-43
2023/06/03 00:04:41;;;;;;;5.20;2.90;;;;;;;15.21;100.00;99925.94;105662;1254;71756;-43
2023/06/03 00:07:10;;;;;;;6.10;3.20;;;;;;;15.18;100.00;99923.48;105692;1256;63917;-43
2023/06/03 00:09:38;;;;;;;3.20;2.90;;;;;;;15.14;100.00;99929.39;105702;1254;72620;-44
2023/06/03 00:12:06;;;;;;;16.70;3.40;;;;;;;15.09;100.00;99930.31;105686;1259;62091;-44
2023/06/03 00:14:33;;;;;;;3.70;2.70;;;;;;;15.05;100.00;99937.60;105685;1259;59542;-44
2023/06/03 00:17:01;;;;;;;12.10;3.30;;;;;;;15.02;100.00;99948.33;105626;1259;72330;-44
2023/06/03 00:19:29;;;;;;;7.70;3.20;;;;;;;15.02;100.00;99954.94;105702;1259;64184;-43
2023/06/03 00:22:00;;;;;;;4.90;3.30;;;;;;;15.04;100.00;99960.58;105638;1259;72400;-43
2023/06/03 00:24:28;;;;;;;4.10;3.00;;;;;;;15.07;100.00;99954.02;105708;1254;61754;-43
2023/06/03 00:26:55;;;;;;;5.30;3.30;;;;;;;15.08;100.00;99954.86;105647;1260;60375;-44
2023/06/03 00:29:24;;;;;;;15.30;3.60;;;;;;;15.06;100.00;99953.73;105630;1259;73830;-43
2023/06/03 00:31:52;;;;;;;9.80;3.40;;;;;;;15.05;100.00;99951.69;105719;1254;64054;-43
2023/06/03 00:34:19;;;;;;;13.20;3.50;;;;;;;15.06;100.00;99937.39;105655;1259;71485;-43
2023/06/03 00:36:47;;;;;;;11.60;3.60;;;;;;;15.06;100.00;99929.23;105690;1257;60492;-44
2023/06/03 00:39:15;;;;;;;11.10;3.30;;;;;;;15.04;100.00;99922.73;105619;1260;60345;-43
2023/06/03 00:41:42;;;;;;;12.60;3.10;;;;;;;15.03;100.00;99922.08;105610;1254;72542;-43
2023/06/03 00:44:10;;;;;;;6.40;3.90;;;;;;;15.00;100.00;99920.64;105607;1254;63423;-44
2023/06/03 00:46:37;;;;;;;11.70;3.50;;;;;;;14.98;100.00;99922.97;105630;1255;71403;-44
2023/06/03 00:49:05;;;;;;;9.10;3.40;;;;;;;14.94;100.00;99921.25;105619;1256;60527;-44
2023/06/03 00:51:33;;;;;;;9.10;3.50;;;;;;;14.87;100.00;99922.75;105654;1259;61194;-44
2023/06/03 00:54:01;;;;;;;4.70;3.20;;;;;;;14.81;100.00;99923.58;105614;1254;72681;-44
2023/06/03 00:56:29;;;;;;;15.70;3.20;;;;;;;14.75;100.00;99923.11;105700;1254;65168;-45
2023/06/03 00:58:57;;;;;;;6.90;3.40;;;;;;;14.73;100.00;99922.55;105496;1254;70754;-43
2023/06/03 01:01:28;;;;;;;10.10;3.60;;;;;;;14.70;100.00;99923.34;105695;1254;60556;-44
2023/06/03 01:03:56;;;;;;;8.50;4.30;;;;;;;14.65;100.00;99927.33;105737;1254;60530;-49
2023/06/03 01:06:48;;;;;;;10.90;3.80;;;;;;;14.63;100.00;99933.35;105635;1254;73837;-42
2023/06/03 01:09:25;;;;;;;6.70;3.60;;;;;;;14.63;100.00;99932.64;105480;1259;64119;-43
2023/06/03 01:12:00;;;;;;;12.80;3.80;;;;;;;14.61;100.00;99932.53;105839;1253;72664;-44
2023/06/03 01:14:44;;;;;;;8.10;3.50;;;;;;;14.58;100.00;99925.38;105651;1257;61695;-44
2023/06/03 01:17:12;;;;;;;9.80;3.50;;;;;;;14.57;100.00;99920.73;105703;1255;60506;-45
2023/06/03 01:19:50;;;;;;;13.50;3.70;;;;;;;14.59;100.00;99915.63;105663;1254;72567;-45
2023/06/03 01:22:20;;;;;;;10.60;3.70;;;;;;;14.59;100.00;99914.21;105703;1258;65472;-44
2023/06/03 01:24:50;;;;;;;9.70;3.50;;;;;;;14.61;100.00;99910.52;105671;1254;71213;-44
2023/06/03 01:27:18;;;;;;;12.60;3.70;;;;;;;14.61;100.00;99909.98;105712;1254;60534;-44
2023/06/03 01:29:46;;;;;;;10.90;3.80;;;;;;;14.61;100.00;99902.52;105696;1258;60437;-44
2023/06/03 01:32:15;;;;;;;12.60;3.80;;;;;;;14.60;100.00;99904.29;105678;1254;71636;-44
2023/06/03 01:34:42;;;;;;;13.70;3.70;;;;;;;14.59;100.00;99905.05;105714;1254;64009;-44
2023/06/03 01:37:10;;;;;;;13.50;4.10;;;;;;;14.61;100.00;99902.54;105653;1254;72629;-44
2023/06/03 01:39:40;;;;;;;8.90;3.20;;;;;;;14.64;100.00;99900.13;105715;1254;60517;-44
2023/06/03 01:42:09;;;;;;;20.80;3.40;;;;;;;14.62;100.00;99899.33;105725;1254;60355;-45
2023/06/03 01:44:37;;;;;;;8.90;2.80;;;;;;;14.61;100.00;99900.40;105707;1254;72637;-44
2023/06/03 01:47:05;;;;;;;17.70;3.40;;;;;;;14.61;100.00;99898.88;105717;1259;64443;-44
2023/06/03 01:49:33;;;;;;;10.40;3.80;;;;;;;14.59;100.00;99905.55;105661;1259;71389;-44
2023/06/03 01:52:01;;;;;;;13.40;3.50;;;;;;;14.56;100.00;99907.60;105687;1254;60474;-44
2023/06/03 01:54:29;;;;;;;11.80;3.70;;;;;;;14.54;100.00;99907.02;105714;1259;60403;-44
2023/06/03 01:56:57;;;;;;;10.00;3.50;;;;;;;14.53;100.00;99913.48;105658;1254;72660;-44
2023/06/03 01:59:25;;;;;;;6.90;3.50;;;;;;;14.53;100.00;99918.16;105702;1254;65165;-44
2023/06/03 02:01:54;;;;;;;4.80;3.40;;;;;;;14.52;100.00;99927.71;105708;1259;71398;-44
2023/06/03 02:04:22;;;;;;;7.50;3.60;;;;;;;14.58;100.00;99929.55;105730;1253;60514;-44
2023/06/03 02:06:51;;;;;;;9.90;3.60;;;;;;;14.66;100.00;99922.11;105704;1254;60419;-44
2023/06/03 02:10:45;;;;;;;4.00;3.50;;;;;;;14.72;100.00;99898.93;102670;1294;600919;-44
2023/06/03 02:13:13;;;;;;;10.50;4.00;;;;;;;14.73;100.00;99920.06;104874;1267;60455;-44
2023/06/03 02:15:41;;;;;;;10.20;3.90;;;;;;;14.78;100.00;99929.60;104930;1270;59321;-44
2023/06/03 02:18:10;;;;;;;10.90;4.00;;;;;;;14.80;100.00;99920.11;104808;1270;72240;-44
2023/06/03 02:20:37;;;;;;;9.70;3.80;;;;;;;14.84;100.00;99914.23;104842;1270;65163;-44
2023/06/03 02:23:05;;;;;;;10.70;3.70;;;;;;;14.87;100.00;99927.45;104874;1271;72632;-44
2023/06/03 02:25:34;;;;;;;12.60;3.60;;;;;;;14.90;100.00;99930.43;104910;1264;218024;-45
2023/06/03 02:28:03;;;;;;;5.20;3.10;;;;;;;14.96;100.00;99938.71;105080;1268;59862;-44
2023/06/03 02:30:30;;;;;;;8.20;3.30;;;;;;;14.98;100.00;99953.19;105117;1268;70970;-44
2023/06/03 02:32:58;;;;;;;6.80;3.20;;;;;;;15.04;100.00;99955.20;105197;1266;66266;-44
2023/06/03 02:35:26;;;;;;;6.40;3.20;;;;;;;15.15;100.00;99937.17;104854;1270;72622;-44
2023/06/03 02:37:54;;;;;;;9.20;3.20;;;;;;;15.26;100.00;99932.83;104874;1265;60138;-44
2023/06/03 02:40:21;;;;;;;8.20;3.50;;;;;;;15.38;100.00;99921.31;104896;1264;59542;-44
2023/06/03 02:42:49;;;;;;;11.50;3.30;;;;;;;15.46;100.00;99929.31;105113;1264;73125;-44
2023/06/03 02:45:17;;;;;;;9.60;3.60;;;;;;;15.55;100.00;99934.96;105194;1263;65295;-43
2023/06/03 02:47:45;;;;;;;8.10;3.50;;;;;;;15.66;100.00;99942.63;105138;1267;71416;-44
2023/06/03 02:50:13;;;;;;;12.80;3.30;;;;;;;15.81;100.00;99944.02;104897;1262;60081;-42
2023/06/03 02:52:40;;;;;;;6.80;2.90;;;;;;;15.97;100.00;99950.05;105174;1265;59608;-42
2023/06/03 02:55:08;;;;;;;10.10;3.10;;;;;;;16.09;100.00;99954.87;105123;1263;72961;-43
2023/06/03 02:57:36;;;;;;;13.40;3.20;;;;;;;16.19;100.00;99963.05;105142;1268;63902;-43
2023/06/03 03:00:10;;;;;;;5.40;3.10;;;;;;;16.27;100.00;99990.89;105191;1264;71645;-43
2023/06/03 03:02:39;;;;;;;6.30;3.10;;;;;;;16.32;100.00;100019.88;105170;1267;60011;-42
2023/06/03 03:05:07;;;;;;;13.50;4.00;;;;;;;16.34;100.00;100034.06;105195;1263;59548;-42
2023/06/03 03:07:36;;;;;;;8.50;3.30;;;;;;;16.37;100.00;100016.66;105214;1261;71830;-43
2023/06/03 03:10:05;;;;;;;15.90;3.70;;;;;;;16.42;100.00;100013.32;105216;1262;64117;-44
2023/06/03 03:12:33;;;;;;;7.10;3.60;;;;;;;16.49;100.00;100027.41;105188;1264;71481;-43
2023/06/03 03:15:01;;;;;;;9.30;3.70;;;;;;;16.56;100.00;100027.92;105143;1267;60149;-43
2023/06/03 03:17:29;;;;;;;13.80;4.00;;;;;;;16.63;100.00;100048.84;105195;1264;60041;-43
2023/06/03 03:19:58;;;;;;;11.40;3.70;;;;;;;16.67;100.00;100060.32;105221;1263;71885;-44
2023/06/03 03:22:27;;;;;;;9.00;3.50;;;;;;;16.69;100.00;100070.33;105149;1267;64136;-43
2023/06/03 03:24:55;;;;;;;16.20;4.00;;;;;;;16.67;100.00;100081.90;105152;1263;70508;-43
2023/06/03 03:27:25;;;;;;;7.80;3.50;;;;;;;16.65;100.00;100082.70;105199;1263;59692;-43
2023/06/03 03:29:54;;;;;;;11.60;3.90;;;;;;;16.62;100.00;100093.29;105726;1254;59677;-43
2023/06/03 03:32:21;;;;;;;12.30;4.20;;;;;;;16.61;100.00;100090.40;105766;1254;71819;-43
2023/06/03 03:35:03;;;;;;;11.00;4.30;;;;;;;16.60;100.00;100080.70;105691;1253;64294;-44
2023/06/03 03:37:31;;;;;;;9.00;4.10;;;;;;;16.61;100.00;100078.91;105496;1254;72657;-46
2023/06/03 03:39:59;;;;;;;11.60;3.80;;;;;;;16.64;100.00;100069.69;105649;1259;61655;-44
2023/06/03 03:42:28;;;;;;;6.70;3.80;;;;;;;16.71;100.00;100060.84;105715;1253;59961;-43
2023/06/03 03:44:59;;;;;;;13.40;4.30;;;;;;;16.76;100.00;100057.05;105728;1253;73006;-43
2023/06/03 03:47:27;;;;;;;9.50;3.60;;;;;;;16.92;100.00;100050.15;105703;1254;65200;-44
2023/06/03 03:49:55;;;;;;;11.50;4.00;;;;;;;17.14;100.00;100044.52;105761;1257;70624;-43
2023/06/03 03:52:28;;;;;;;9.10;4.00;;;;;;;17.36;100.00;100035.53;105659;1257;59674;-44
2023/06/03 03:55:01;;;;;;;8.40;3.60;;;;;;;17.55;100.00;100028.41;105719;1254;59638;-43
2023/06/03 03:57:31;;;;;;;10.20;3.80;;;;;;;17.74;100.00;100023.39;105705;1253;72982;-44
2023/06/03 03:59:59;;;;;;;15.50;3.80;;;;;;;17.94;100.00;100021.60;105714;1257;65185;-43
2023/06/03 04:02:28;;;;;;;11.90;3.40;;;;;;;18.17;100.00;100017.73;105712;1258;72530;-44
2023/06/03 04:04:58;;;;;;;13.90;4.40;;;;;;;18.31;100.00;100015.85;105733;1254;59676;-44
2023/06/03 04:07:30;;;;;;;6.30;4.10;;;;;;;18.37;100.00;100016.77;105776;1253;60082;-44
2023/06/03 04:09:57;;;;;;;7.50;4.40;;;;;;;18.44;100.00;100023.70;105694;1253;73066;-45
2023/06/03 04:12:32;;;;;;;9.00;4.20;;;;;;;18.49;100.00;100023.05;105893;1253;64593;-43
2023/06/03 04:15:02;;;;;;;9.20;4.10;;;;;;;18.46;100.00;100023.05;105707;1254;71455;-43
2023/06/03 04:17:32;;;;;;;7.70;4.50;;;;;;;18.40;100.00;100021.67;105686;1255;59777;-43
2023/06/03 04:20:01;;;;;;;15.90;4.60;;;;;;;18.35;100.00;100016.89;105751;1259;59545;-44
2023/06/03 04:22:31;;;;;;;8.10;4.20;;;;;;;18.33;100.00;100012.06;105740;1253;71860;-44
2023/06/03 04:25:01;;;;;;;8.80;4.40;;;;;;;18.35;100.00;100019.14;105738;1255;63929;-43
2023/06/03 04:27:37;;;;;;;15.20;4.60;;;;;;;18.34;100.00;100013.23;105684;1253;72113;-45
2023/06/03 04:30:07;;;;;;;10.80;4.30;;;;;;;18.31;100.00;100014.96;105683;1253;60019;-44
2023/06/03 04:32:36;;;;;;;9.70;4.20;;;;;;;18.26;100.00;100025.20;105732;1257;59599;-44
2023/06/03 04:35:06;;;;;;;12.20;4.80;;;;;;;18.19;100.00;100027.34;105696;1258;71519;-44
2023/06/03 04:37:35;;;;;;;16.10;4.80;;;;;;;18.14;100.00;100026.46;105697;1254;64039;-44
2023/06/03 04:40:04;;;;;;;10.80;4.90;;;;;;;18.10;100.00;100047.96;105681;1258;73633;-44
2023/06/03 04:42:33;;;;;;;11.20;3.90;;;;;;;18.03;100.00;100049.95;105672;1254;59644;-44
2023/06/03 04:45:01;;;;;;;9.30;4.60;;;;;;;17.98;100.00;100048.76;105687;1255;60233;-45
2023/06/03 04:47:33;;;;;;;9.50;4.60;;;;;;;17.95;100.00;100058.55;105701;1257;70822;-44
2023/06/03 04:50:04;;;;;;;9.70;4.70;;;;;;;17.88;100.00;100091.75;105727;1257;64048;-44
2023/06/03 04:52:34;;;;;;;8.80;4.80;;;;;;;17.82;100.00;100117.70;105721;1253;71472;-43
2023/06/03 04:55:03;;;;;;;15.40;6.40;;;;;;;17.76;100.00;100167.04;105741;1253;59855;-44
2023/06/03 04:57:31;;;;;;;10.50;5.20;;;;;;;17.71;100.00;100229.63;105723;1253;59539;-43
2023/06/03 04:59:59;;;;;;;13.10;5.90;;;;;;;17.75;100.00;100279.49;105731;1253;71853;-43
2023/06/03 05:02:29;;;;;;;12.20;5.00;;;;;;;17.85;100.00;100308.48;105718;1253;64177;-44
2023/06/03 05:04:58;;;;;;;7.50;4.10;;;;;;;18.00;100.00;100351.21;105734;1258;72746;-44
2023/06/03 05:07:26;;;;;;;8.20;4.30;;;;;;;18.15;100.00;100348.55;105721;1255;59640;-44
2023/06/03 05:09:54;;;;;;;7.30;3.70;;;;;;;18.26;100.00;100311.66;105706;1257;60058;-43
2023/06/03 05:12:23;;;;;;;4.70;3.50;;;;;;;18.39;100.00;100277.44;105671;1253;73037;-43
2023/06/03 05:14:51;;;;;;;7.40;3.30;;;;;;;18.52;100.00;100276.03;105716;1253;65310;-44
2023/06/03 05:17:19;;;;;;;7.10;4.00;;;;;;;18.53;100.00;100226.14;105661;1256;71427;-44
2023/06/03 05:19:46;;;;;;;7.80;4.50;;;;;;;18.54;100.00;100189.06;105697;1253;60578;-43
2023/06/03 05:22:14;;;;;;;8.80;3.70;;;;;;;18.51;100.00;100179.45;105879;1253;59532;-43
2023/06/03 05:24:42;;;;;;;7.70;4.20;;;;;;;18.47;100.00;100204.14;105678;1257;72026;-43
2023/06/03 05:27:10;;;;;;;11.30;4.50;;;;;;;18.51;100.00;100222.45;105623;1253;65260;-44
2023/06/03 05:29:38;;;;;;;9.70;4.50;;;;;;;18.56;100.00;100235.63;105687;1253;72724;-44
2023/06/03 05:32:06;;;;;;;8.00;4.30;;;;;;;18.63;100.00;100256.53;105686;1253;59685;-44
2023/06/03 05:34:34;;;;;;;7.20;4.50;;;;;;;18.69;100.00;100252.56;105725;1254;59988;-44
2023/06/03 05:37:03;;;;;;;7.80;4.60;;;;;;;18.70;100.00;100221.77;105662;1257;71092;-43
2023/06/03 05:39:30;;;;;;;13.00;5.50;;;;;;;18.74;100.00;100208.42;105737;1253;63336;-44
2023/06/03 05:41:59;;;;;;;6.50;4.10;;;;;;;18.78;100.00;100212.58;105681;1255;71452;-44
2023/06/03 05:44:27;;;;;;;11.30;4.70;;;;;;;18.74;100.00;100235.32;105714;1253;60186;-44
2023/06/03 05:46:55;;;;;;;7.50;4.30;;;;;;;18.67;100.00;100249.52;105597;1252;59978;-44
2023/06/03 05:49:23;;;;;;;11.90;4.90;;;;;;;18.60;100.00;100246.79;105750;1253;71839;-44
2023/06/03 05:51:51;;;;;;;6.40;4.30;;;;;;;18.50;100.00;100235.40;105657;1259;65658;-44
2023/06/03 05:54:19;;;;;;;16.60;4.60;;;;;;;18.46;100.00;100244.36;105822;1254;72648;-44
2023/06/03 05:56:46;;;;;;;11.80;4.40;;;;;;;18.50;100.00;100263.55;105649;1257;61606;-44
2023/06/03 05:59:14;;;;;;;5.50;4.40;;;;;;;18.56;100.00;100270.94;105679;1253;59699;-44
2023/06/03 06:01:43;;;;;;;12.50;4.60;;;;;;;18.59;100.00;100255.00;105897;1253;73133;-44
2023/06/03 06:04:11;;;;;;;16.70;4.70;;;;;;;18.61;100.00;100234.29;105709;1253;64370;-44
2023/06/03 06:06:39;;;;;;;9.30;4.20;;;;;;;18.65;100.00;100238.96;105620;1253;72636;-44
2023/06/03 06:09:06;;;;;;;6.70;4.30;;;;;;;18.75;100.00;100230.73;105675;1254;60491;-44
2023/06/03 06:11:35;;;;;;;12.90;4.50;;;;;;;18.83;100.00;100232.54;105715;1254;59998;-44
2023/06/03 06:14:02;;;;;;;6.50;4.00;;;;;;;18.92;100.00;100218.94;105677;1254;72986;-44
2023/06/03 06:16:30;;;;;;;7.20;4.30;;;;;;;18.92;100.00;100206.84;105672;1259;65135;-45
2023/06/03 06:18:58;;;;;;;8.60;4.70;;;;;;;18.85;100.00;100208.69;105409;1259;72572;-45
2023/06/03 06:21:27;;;;;;;8.50;4.30;;;;;;;18.75;100.00;100226.21;105751;1254;60531;-47
2023/06/03 06:23:55;;;;;;;4.30;3.40;;;;;;;18.74;100.00;100252.27;105759;1257;60410;-46
2023/06/03 06:26:25;;;;;;;6.80;4.50;;;;;;;18.78;100.00;100276.34;105671;1257;73828;-43
2023/06/03 06:28:54;;;;;;;5.00;4.10;;;;;;;18.83;100.00;100305.78;105751;1254;64011;-43
2023/06/03 06:31:22;;;;;;;8.50;4.90;;;;;;;18.87;100.00;100331.79;105656;1253;72783;-43
2023/06/03 06:33:53;;;;;;;8.60;4.30;;;;;;;18.93;100.00;100353.29;105632;1256;61646;-43
2023/06/03 06:36:33;;;;;;;10.30;4.20;;;;;;;19.05;100.00;100364.24;105658;1257;60575;-43
2023/06/03 06:39:15;;;;;;;6.60;4.30;;;;;;;19.12;100.00;100337.28;105686;1252;73866;-43
2023/06/03 06:41:43;;;;;;;5.10;4.00;;;;;;;19.17;100.00;100300.77;105718;1257;64110;-43
2023/06/03 06:44:13;;;;;;;6.00;4.20;;;;;;;19.25;100.00;100276.56;105690;1253;71447;-43
2023/06/03 06:46:41;;;;;;;6.20;4.20;;;;;;;19.30;100.00;100248.09;105662;1258;61655;-43
2023/06/03 06:49:10;;;;;;;4.30;3.60;;;;;;;19.34;100.00;100204.48;105663;1258;60339;-43
2023/06/03 06:51:38;;;;;;;6.50;4.20;;;;;;;19.41;100.00;100179.21;105702;1253;72574;-44
2023/06/03 06:54:06;;;;;;;6.30;4.50;;;;;;;19.52;100.00;100174.56;105842;1253;64780;-43
2023/06/03 06:56:34;;;;;;;4.60;4.00;;;;;;;19.65;100.00;100186.35;105687;1260;72617;-43
2023/06/03 06:59:02;;;;;;;8.50;4.20;;;;;;;19.74;100.00;100178.11;105723;1253;60480;-43
2023/06/03 07:01:29;;;;;;;4.50;4.00;;;;;;;19.79;100.00;100159.77;105668;1253;60514;-43
2023/06/03 07:03:57;;;;;;;5.50;4.00;;;;;;;19.79;100.00;100143.81;105688;1255;72271;-45
2023/06/03 07:06:26;;;;;;;4.20;3.80;;;;;;;19.78;100.00;100145.86;105698;1257;63966;-45
2023/06/03 07:08:58;;;;;;;6.90;3.90;;;;;;;19.76;100.00;100145.44;105687;1253;71701;-45
2023/06/03 07:11:26;;;;;;;5.10;3.90;;;;;;;19.78;100.00;100165.43;105718;1253;60534;-45
2023/06/03 07:13:58;;;;;;;7.80;3.80;;;;;;;19.87;100.00;100184.88;105687;1257;60419;-45
2023/06/03 07:16:26;;;;;;;6.00;4.30;;;;;;;19.97;100.00;100187.29;105679;1258;73813;-43
2023/06/03 07:18:54;;;;;;;6.90;3.90;;;;;;;20.08;100.00;100183.27;105697;1255;63910;-44
2023/06/03 07:21:33;;;;;;;6.00;4.00;;;;;;;20.06;100.00;100170.58;105868;1253;71678;-44
2023/06/03 07:24:02;;;;;;;11.40;4.30;;;;;;;20.13;100.00;100173.02;105830;1252;60422;-44
2023/06/03 07:26:32;;;;;;;4.60;3.80;;;;;;;20.19;100.00;100170.83;105690;1258;60476;-44
2023/06/03 07:29:00;;;;;;;4.80;3.80;;;;;;;20.09;100.00;100149.39;105711;1253;72636;-44
2023/06/03 07:31:29;;;;;;;6.60;3.70;;;;;;;20.13;100.00;100158.99;105686;1253;64011;-43
2023/06/03 07:33:57;;;;;;;4.60;3.60;;;;;;;20.22;100.00;100167.88;105726;1258;72647;-43
2023/06/03 07:36:41;;;;;;;7.00;3.50;;;;;;;20.36;100.00;100166.41;105701;1257;60531;-44
2023/06/03 07:39:14;;;;;;;4.50;3.20;;;;;;;20.47;100.00;100162.41;105713;1258;60410;-43
2023/06/03 07:41:52;;;;;;;5.90;3.30;;;;;;;20.56;100.00;100163.77;105669;1253;72650;-43
2023/06/03 07:44:36;;;;;;;8.50;3.70;;;;;;;20.55;100.00;100179.80;105680;1258;64219;-43
2023/06/03 07:47:04;;;;;;;4.20;3.40;;;;;;;20.41;100.00;100201.01;105798;1253;72683;-44
2023/06/03 07:49:32;;;;;;;3.90;3.40;;;;;;;20.22;100.00;100208.65;105679;1253;60443;-44
2023/06/03 07:52:00;;;;;;;4.60;3.30;;;;;;;19.94;100.00;100217.73;105600;1253;60506;-45
2023/06/03 07:54:27;;;;;;;6.10;3.40;;;;;;;19.65;100.00;100227.85;105667;1253;73745;-44
2023/06/03 07:56:56;;;;;;;4.10;3.30;;;;;;;19.32;100.00;100232.21;105613;1253;64285;-44
2023/06/03 07:59:24;;;;;;;4.90;3.30;;;;;;;19.08;100.00;100245.69;105648;1253;72581;-44
2023/06/03 08:01:53;;;;;;;3.70;3.20;;;;;;;18.83;100.00;100268.90;105697;1259;60505;-44
2023/06/03 08:04:32;;;;;;;3.70;3.30;;;;;;;18.54;100.00;100303.01;105720;1253;60524;-44
2023/06/03 08:07:00;;;;;;;5.50;3.40;;;;;;;18.19;100.00;100376.10;105683;1257;72388;-44
2023/06/03 08:09:30;;;;;;;4.20;3.70;;;;;;;17.83;100.00;100460.07;105744;1257;63903;-43
2023/06/03 08:11:58;;;;;;;3.90;3.60;;;;;;;17.58;100.00;100553.73;105937;1254;72732;-44
2023/06/03 08:14:26;;;;;;;3.70;3.40;;;;;;;17.35;100.00;100659.92;105903;1255;60556;-43
2023/06/03 08:16:53;;;;;;;5.70;3.60;;;;;;;17.19;100.00;100746.55;105889;1257;60533;-43
2023/06/03 08:19:21;;;;;;;4.50;3.90;;;;;;;17.14;100.00;100809.05;105705;1254;73822;-43
2023/06/03 08:21:48;;;;;;;5.70;3.70;;;;;;;17.11;100.00;100862.84;105873;1253;63963;-43
2023/06/03 08:24:16;;;;;;;8.50;5.00;;;;;;;17.07;100.00;100909.90;105931;1253;72550;-44
2023/06/03 08:26:45;;;;;;;9.00;4.60;;;;;;;17.00;100.00;100950.59;105841;1254;60940;-44
2023/06/03 08:29:12;;;;;;;12.30;6.30;;;;;;;16.87;100.00;100983.63;105946;1256;60421;-44
2023/06/03 08:31:40;;;;;;;12.50;6.60;;;;;;;16.64;100.00;101010.25;105841;1257;72601;-44
2023/06/03 08:34:07;;;;;;;8.80;6.90;;;;;;;16.44;100.00;101040.70;105864;1257;65165;-44
2023/06/03 08:36:36;;;;;;;11.20;7.30;;;;;;;16.24;100.00;101063.67;105880;1256;70859;-44
2023/06/03 08:39:05;;;;;;;12.00;7.30;;;;;;;16.04;100.00;101082.23;105904;1254;60453;-43
2023/06/03 08:41:39;;;;;;;12.20;7.80;;;;;;;15.90;100.00;101088.21;105930;1257;60764;-44
2023/06/03 08:44:33;;;;;;;12.70;7.80;;;;;;;15.77;100.00;101078.30;105909;1254;73783;-43
2023/06/03 08:47:09;;;;;;;16.20;8.30;;;;;;;15.59;100.00;101065.08;105707;1253;65512;-43
2023/06/03 08:49:44;;;;;;;10.00;8.50;;;;;;;15.46;100.00;101056.26;105900;1257;71026;-44
2023/06/03 08:52:11;;;;;;;13.10;7.60;;;;;;;15.38;100.00;101054.24;105877;1256;60843;-45
2023/06/03 08:54:39;;;;;;;11.60;7.60;;;;;;;15.27;100.00;101049.16;105666;1252;60920;-44
2023/06/03 08:57:09;;;;;;;11.10;8.20;;;;;;;15.10;100.00;101035.19;105911;1254;72587;-46
2023/06/03 08:59:37;;;;;;;10.30;9.10;;;;;;;14.95;100.00;101022.08;105804;1255;63898;-48
2023/06/03 09:02:06;;;;;;;14.00;9.00;;;;;;;14.76;100.00;101014.76;105744;1254;72270;-45
2023/06/03 09:04:34;;;;;;;9.70;8.70;;;;;;;14.67;100.00;101015.15;105770;1254;60453;-43
2023/06/03 09:07:03;;;;;;;8.70;7.90;;;;;;;14.57;100.00;101014.36;105843;1252;60447;-43
2023/06/03 09:09:31;;;;;;;8.10;7.40;;;;;;;14.42;100.00;101006.05;105782;1256;73775;-44
2023/06/03 09:11:58;;;;;;;8.00;7.30;;;;;;;14.31;100.00;101003.55;105669;1253;64398;-44
2023/06/03 09:14:26;;;;;;;10.20;6.90;;;;;;;14.20;100.00;101004.53;105543;1260;72722;-43
2023/06/03 09:16:54;;;;;;;10.90;8.00;;;;;;;14.06;100.00;101004.00;105639;1253;61659;-43
2023/06/03 09:19:21;;;;;;;12.50;7.60;;;;;;;13.90;100.00;101001.77;105694;1259;60496;-44
2023/06/03 09:21:50;;;;;;;9.50;6.60;;;;;;;13.78;100.00;100999.11;105605;1253;72056;-43
2023/06/03 09:24:22;;;;;;;10.70;6.90;;;;;;;13.67;100.00;101005.42;105741;1253;63654;-43
2023/06/03 09:26:49;;;;;;;9.00;6.30;;;;;;;13.56;100.00;101006.17;105658;1259;70683;-43
2023/06/03 09:29:18;;;;;;;18.30;6.80;;;;;;;13.45;100.00;101010.55;105648;1254;60450;-43
2023/06/03 09:31:47;;;;;;;10.30;6.30;;;;;;;13.34;100.00;101013.38;105673;1253;60480;-43
2023/06/03 09:34:16;;;;;;;8.90;5.70;;;;;;;13.24;100.00;101014.98;105625;1253;72660;-44
2023/06/03 09:36:45;;;;;;;8.10;6.40;;;;;;;13.04;100.00;101022.30;105654;1258;63931;-43
2023/06/03 09:39:16;;;;;;;10.10;6.40;;;;;;;12.89;100.00;101023.63;105608;1253;72641;-43
2023/06/03 09:41:44;;;;;;;7.40;5.70;;;;;;;12.83;100.00;101027.90;105646;1258;60482;-43
2023/06/03 09:44:12;;;;;;;7.20;5.90;;;;;;;12.68;100.00;101021.59;105688;1253;60503;-44
2023/06/03 09:46:42;;;;;;;10.20;6.10;;;;;;;12.63;100.00;101023.05;105633;1253;72919;-44
2023/06/03 09:49:17;;;;;;;9.40;5.60;;;;;;;12.58;100.00;101025.74;105543;1261;63128;-44
2023/06/03 09:52:07;;;;;;;6.40;5.10;;;;;;;12.56;100.00;101026.99;105637;1253;72615;-43
2023/06/03 09:54:35;;;;;;;4.60;4.20;;;;;;;12.53;100.00;101029.65;105665;1253;61623;-43
2023/06/03 09:57:10;;;;;;;6.50;3.30;;;;;;;12.52;100.00;101031.92;105686;1259;60435;-43
2023/06/03 09:59:42;;;;;;;4.10;2.60;;;;;;;12.47;100.00;101029.05;105673;1255;73796;-43
2023/06/03 10:02:12;;;;;;;3.60;2.30;;;;;;;12.48;100.00;101033.54;105676;1255;63921;-43
2023/06/03 10:04:44;;;;;;;5.90;2.50;;;;;;;12.45;100.00;101047.44;105622;1257;71391;-43
2023/06/03 10:07:13;;;;;;;3.70;2.50;;;;;;;12.39;100.00;101057.40;105689;1253;61626;-43
2023/06/03 10:09:44;;;;;;;3.00;1.80;;;;;;;12.25;100.00;101065.23;105683;1253;60528;-43
2023/06/03 10:12:27;;;;;;;3.10;2.30;;;;;;;12.14;100.00;101076.64;105656;1253;72544;-43
2023/06/03 10:14:56;;;;;;;2.20;1.90;;;;;;;12.07;100.00;101087.30;105647;1253;65345;-44
2023/06/03 10:17:23;;;;;;;2.20;2.00;;;;;;;11.95;100.00;101093.33;105727;1258;71479;-43
2023/06/03 10:19:51;;;;;;;2.30;1.70;;;;;;;11.81;100.00;101101.98;105662;1258;61654;-43
2023/06/03 10:22:19;;;;;;;2.00;1.90;;;;;;;11.69;100.00;101106.29;105701;1253;60509;-43
2023/06/03 10:24:48;;;;;;;2.20;2.00;;;;;;;11.62;100.00;101113.98;105612;1253;73809;-44
2023/06/03 10:27:17;;;;;;;1.70;1.40;;;;;;;11.59;100.00;101124.05;105687;1253;65239;-43
2023/06/03 10:29:45;;;;;;;1.70;1.40;;;;;;;11.57;100.00;101130.80;105686;1256;71473;-42
2023/06/03 10:32:28;;;;;;;1.20;1.20;;;;;;;11.54;100.00;101143.13;103314;1288;601132;-44
2023/06/03 10:34:56;;;;;;;2.70;0.90;;;;;;;11.45;100.00;101132.17;104799;1272;60477;-43
2023/06/03 10:37:24;;;;;;;1.70;1.20;;;;;;;11.40;100.00;101133.59;105454;1260;60060;-43
2023/06/03 10:39:52;;;;;;;3.70;1.70;;;;;;;11.37;100.00;101133.64;105369;1260;71283;-43
2023/06/03 10:42:20;;;;;;;2.10;1.10;;;;;;;11.36;100.00;101132.61;105290;1261;64062;-44
2023/06/03 10:44:48;;;;;;;5.50;1.80;;;;;;;11.32;100.00;101132.47;105375;1260;70847;-42
2023/06/03 10:47:26;;;;;;;1.60;1.50;;;;;;;11.26;100.00;101136.52;105371;1257;303016;-43
2023/06/03 10:50:18;;;;;;;2.20;1.80;;;;;;;11.24;100.00;101140.33;105478;1257;60070;-43
2023/06/03 10:53:10;;;;;;;4.60;2.30;;;;;;;11.19;100.00;101139.67;105487;1257;71025;-43
2023/06/03 10:56:03;;;;;;;2.50;2.30;;;;;;;11.18;100.00;101143.32;105607;1257;64100;-44
2023/06/03 10:58:30;;;;;;;3.20;3.00;;;;;;;11.20;100.00;101138.45;105602;1260;71821;-44
2023/06/03 11:00:59;;;;;;;7.00;3.80;;;;;;;11.24;100.00;101132.20;105573;1257;60006;-43
2023/06/03 11:03:31;;;;;;;9.60;5.20;;;;;;;11.29;100.00;101128.02;105495;1260;59554;-43
2023/06/03 11:06:32;;;;;;;9.40;6.00;;;;;;;11.36;100.00;101128.45;105504;1257;71722;-44
2023/06/03 11:09:08;;;;;;;6.90;5.60;;;;;;;11.43;100.00;101130.79;105513;1257;65273;-43
2023/06/03 11:11:40;;;;;;;8.00;6.40;;;;;;;11.48;100.00;101135.92;105500;1260;71396;-44
2023/06/03 11:14:08;;;;;;;5.90;5.40;;;;;;;11.55;100.00;101131.52;105491;1262;60376;-45
2023/06/03 11:16:57;;;;;;;8.60;6.40;;;;;;;11.56;100.00;101133.93;105264;1262;59548;-45
2023/06/03 11:19:31;;;;;;;14.40;7.30;;;;;;;11.59;100.00;101131.30;105322;1258;71774;-44
2023/06/03 11:21:59;;;;;;;10.70;7.60;;;;;;;11.63;100.00;101132.46;105462;1257;64864;-44
2023/06/03 11:24:37;;;;;;;9.30;7.60;;;;;;;11.65;100.00;101129.33;105448;1259;72659;-44